Yotvata, Israel
Current Conditions -  °F | °C
As of 12:00 AM on Monday 24 Nov 2014 (Local Time) from OJAQ Reporting Station
Clear Clear  
Wind Chill: 61°   Ceiling: Unl
Heat Index: 61°   Visibility: 6mi
Dew Point: 46°   Wind: 3mph
Humidity: 59%   Direction: 360°N
Pressure: 29.94"   Gusts: NA
Location:  29.91°N, 35.07°E
Report Text: OJAQ 232100Z 36003KT CAVOK 16/08 Q1014 NOSIG
Loading
Personal Weather Stations






























Interactive Weather Map New forecast layout! Learn more

10-Day Weather Forecast

Advertisements
Track Severe Weather on mobile